Aérodrome :
LOGIN :

S'inscrire | Disclaimer

   EN    FR    IT 

 










Légende :    VFR   VFR Marginal   IFR   IFR Intensif   IFR Très Intensif
Visi : 
Plafond : 
>= 8 km
>= 3000ft
5 à 8 km
1000 à 3000 ft
1500m à 5 km
500 à 1000 ft
800 à 1500m
200 à 500 ft
< 800m
< 200 ft
Symboles :   Orages  Brouillard  Fortes neiges  Fortes précipitations  Vent > 20 kt
SIGMETs :   Divers  Orages  Givrage  Turbulence  Onde Orograph.  Cendres Volcan.







- Altitude de l'aérodrome : 412 ft
- Code IATA : ORE
- Voir les cartes d'approche


LFOJ - Orleans

DERNIER METAR :
  • 211400Z AUTO 24009KT CAVOK 16/05 Q1028 NOSIG

METARs EXPIRÉS :
  • 211330Z AUTO 23009KT 190V260 CAVOK 16/05 Q1028 NOSIG
  • 211300Z AUTO 22008KT 190V250 CAVOK 16/06 Q1028 NOSIG
  • 211230Z AUTO 22007KT 190V250 CAVOK 16/06 Q1028 NOSIG
  • 211200Z AUTO 22007KT CAVOK 15/07 Q1028 NOSIG
  • 211130Z AUTO 24006KT 210V270 CAVOK 14/07 Q1028 NOSIG

TAF TAF LFOJ
Valide du 21 à 09h jusqu'au 22 à 09h UTC


210800Z 2109/2209 14003KT 6000 NSC
BECMG 2200/2202 3000 BR
PROB30
TEMPO 2203/2206 0600 FG
Pas de NOTAMs connus pour ce terrain.



MET'MAP, la Météo Aéronautique d'un coup d'oeil ! - Copyright ORBIFLY Décembre 2007 - Disclaimer

ORBIFLY MET'MAP TEAM :

Programmation & Développement : Alexandra Zaïnal
Conception & Développement : Baudouin d'Aumeries
Co-Programmation & Développement : Marc-Olivier Méhu
Soutien technique & logistique : Manuel Goepfert

Contact : metmap@orbifly.com




SOURCES & CREDITS :

   NOAA